Time;durP1;ratioP1;P1;durP2;ratioP2;P2;SDS_P1;SDS_P2;PMS_P1;PMS_P2;Temp;Humidity;BMP_temperature;BMP_pressure;BME280_temperature;BME280_humidity;BME280_pressure;Samples;Min_cycle;Max_cycle;Signal;HPM_P1;HPM_P2
2023/06/21 00:00:19;;;;;;;36.85;16.50;;;;;;;29.51;72.68;100703.44;5049646;28;70536;-43
2023/06/21 00:02:51;;;;;;;25.92;15.90;;;;;;;29.88;75.18;100752.34;5055305;28;66300;-41
2023/06/21 00:05:22;;;;;;;27.85;15.98;;;;;;;30.35;76.29;100807.84;5055674;28;70450;-41
2023/06/21 00:07:54;;;;;;;33.55;15.73;;;;;;;29.85;75.41;100715.75;5059245;28;66194;-39
2023/06/21 00:10:28;;;;;;;24.15;14.38;;;;;;;30.52;77.20;100824.38;5059126;28;69921;-41
2023/06/21 00:13:00;;;;;;;27.25;14.00;;;;;;;30.63;77.15;100831.78;5059961;28;66249;-44
2023/06/21 00:15:31;;;;;;;19.60;13.15;;;;;;;30.70;76.20;100832.59;5056873;28;70743;-42
2023/06/21 00:18:03;;;;;;;21.17;13.47;;;;;;;30.79;75.57;100835.03;5058023;28;65209;-40
2023/06/21 00:20:37;;;;;;;19.13;12.60;;;;;;;30.91;75.25;100849.53;5056763;28;70356;-41
2023/06/21 00:23:08;;;;;;;23.85;13.85;;;;;;;30.97;74.17;100843.22;5057808;28;65515;-40
2023/06/21 00:25:40;;;;;;;28.45;13.45;;;;;;;31.00;73.81;100847.34;5040101;28;70057;-42
2023/06/21 00:28:11;;;;;;;22.73;12.47;;;;;;;31.03;73.39;100852.34;5057246;28;65190;-42
2023/06/21 00:30:42;;;;;;;28.45;11.90;;;;;;;30.92;73.58;100826.78;5041325;28;69133;-42
2023/06/21 00:33:14;;;;;;;32.27;13.87;;;;;;;31.23;72.46;100868.41;5059365;28;66701;-42
2023/06/21 00:35:45;;;;;;;26.13;12.43;;;;;;;31.24;73.18;100870.06;5041391;28;69239;-39
2023/06/21 00:38:18;;;;;;;27.73;13.35;;;;;;;31.30;73.75;100874.59;5039399;28;66357;-42
2023/06/21 00:40:52;;;;;;;20.90;11.88;;;;;;;31.35;73.61;100882.88;5058720;28;70240;-41
2023/06/21 00:43:24;;;;;;;15.68;10.20;;;;;;;31.42;72.08;100877.41;5057755;28;66105;-43
2023/06/21 00:45:55;;;;;;;9.60;7.88;;;;;;;31.08;68.98;100823.53;5057681;28;70897;-43
2023/06/21 00:48:29;;;;;;;8.57;7.80;;;;;;;31.39;68.55;100862.44;5042177;28;65908;-43
2023/06/21 00:51:01;;;;;;;9.02;8.13;;;;;;;31.52;67.52;100873.16;5042404;28;69176;-44
2023/06/21 00:53:32;;;;;;;8.38;7.78;;;;;;;31.54;67.70;100876.47;5050635;28;65449;-42
2023/06/21 00:56:04;;;;;;;8.18;7.47;;;;;;;31.56;67.20;100874.34;5060174;28;69855;-41
2023/06/21 00:58:35;;;;;;;8.90;8.00;;;;;;;31.59;67.05;100881.19;5056018;28;66420;-40
2023/06/21 01:01:06;;;;;;;8.23;7.60;;;;;;;31.60;66.97;100875.56;5042431;28;69730;-42
2023/06/21 01:03:38;;;;;;;11.03;7.70;;;;;;;31.63;66.73;100879.72;5026232;28;66047;-43
2023/06/21 01:06:39;;;;;;;8.32;7.50;;;;;;;30.64;66.33;100719.72;5059543;28;69978;-41
2023/06/21 01:09:40;;;;;;;8.45;7.68;;;;;;;31.06;67.11;100806.66;5023987;28;66431;-41
2023/06/21 01:12:22;;;;;;;8.23;7.38;;;;;;;31.70;66.18;100888.59;5059434;28;69631;-42
2023/06/21 01:15:02;;;;;;;7.55;6.95;;;;;;;31.75;65.82;100885.19;5022755;28;67665;-40
2023/06/21 01:17:40;;;;;;;7.95;6.85;;;;;;;31.26;65.80;100802.91;5057071;28;70012;-42
2023/06/21 01:20:20;;;;;;;7.40;6.75;;;;;;;31.57;65.67;100848.06;5058011;28;65988;-41
2023/06/21 01:23:06;;;;;;;6.63;6.13;;;;;;;31.81;65.16;100889.72;5046647;28;70177;-41
2023/06/21 01:25:53;;;;;;;7.13;6.53;;;;;;;31.82;65.41;100892.22;5056994;28;66557;-38
2023/06/21 01:29:06;;;;;;;6.57;6.18;;;;;;;31.27;65.48;100812.72;5059688;28;71212;-42
2023/06/21 01:31:40;;;;;;;7.38;6.32;;;;;;;31.24;65.16;100783.34;5058491;28;66606;-40
2023/06/21 01:34:13;;;;;;;7.25;5.88;;;;;;;31.92;64.89;100885.44;5058124;28;69514;-40
2023/06/21 01:36:45;;;;;;;6.43;5.90;;;;;;;31.95;65.04;100883.09;5056594;28;65672;-41
2023/06/21 01:39:17;;;;;;;8.52;6.07;;;;;;;31.90;64.88;100869.38;5056041;28;70192;-41
2023/06/21 01:41:49;;;;;;;7.10;6.50;;;;;;;31.90;64.56;100874.81;5058388;28;66745;-40
2023/06/21 01:44:21;;;;;;;6.97;6.30;;;;;;;31.95;64.37;100879.56;5058639;28;70258;-43
2023/06/21 01:46:56;;;;;;;6.45;5.78;;;;;;;31.44;64.22;100786.69;5041873;28;66269;-40
2023/06/21 01:49:29;;;;;;;8.45;5.82;;;;;;;31.61;64.22;100812.13;5051690;28;71025;-41
2023/06/21 01:52:04;;;;;;;6.10;5.63;;;;;;;32.10;64.14;100892.75;5062192;28;65362;-43
2023/06/21 01:54:38;;;;;;;6.38;5.78;;;;;;;31.94;64.45;100870.59;5062271;28;70474;-41
2023/06/21 01:57:10;;;;;;;6.28;5.68;;;;;;;31.98;63.90;100870.97;5063585;28;66446;-40
2023/06/21 01:59:42;;;;;;;6.38;5.88;;;;;;;32.15;64.08;100903.72;5042815;28;69700;-41
2023/06/21 02:02:14;;;;;;;6.97;6.47;;;;;;;32.16;63.95;100910.84;5044340;28;66746;-40
2023/06/21 02:04:48;;;;;;;6.32;5.75;;;;;;;32.17;63.90;100904.34;5059364;28;70085;-42
2023/06/21 02:07:20;;;;;;;10.15;6.13;;;;;;;32.21;64.11;100905.56;5044325;28;65818;-43
2023/06/21 02:09:52;;;;;;;6.75;6.22;;;;;;;32.22;63.89;100899.06;5059235;28;69304;-41
2023/06/21 02:12:30;;;;;;;5.90;5.40;;;;;;;32.18;63.98;100897.84;5042354;28;66102;-39
2023/06/21 02:15:01;;;;;;;8.57;5.72;;;;;;;32.25;63.65;100888.56;5059107;28;70453;-41
2023/06/21 02:17:33;;;;;;;5.90;5.50;;;;;;;32.12;63.98;100866.19;5046093;28;66580;-42
2023/06/21 02:20:13;;;;;;;6.50;5.88;;;;;;;32.30;63.64;100890.59;5057910;28;70951;-42
2023/06/21 02:22:45;;;;;;;5.55;4.80;;;;;;;32.27;63.61;100869.34;5060244;28;66189;-39
2023/06/21 02:25:17;;;;;;;7.45;5.97;;;;;;;32.37;63.34;100876.91;5041570;28;70655;-39
2023/06/21 02:27:51;;;;;;;6.03;5.43;;;;;;;32.37;63.14;100882.34;5053313;28;66474;-42
2023/06/21 02:30:24;;;;;;;5.75;5.25;;;;;;;32.39;63.25;100878.34;5058787;28;70164;-44
2023/06/21 02:32:57;;;;;;;5.65;5.25;;;;;;;32.44;63.10;100880.38;5044434;28;65919;-41
2023/06/21 02:35:29;;;;;;;5.85;5.32;;;;;;;32.40;62.83;100863.75;5043102;28;69529;-42
2023/06/21 02:38:02;;;;;;;5.63;5.23;;;;;;;32.30;62.45;100841.75;5050847;28;67079;-43
2023/06/21 02:40:33;;;;;;;7.82;5.20;;;;;;;32.41;62.76;100848.28;5060850;28;70185;-39
2023/06/21 02:43:05;;;;;;;5.50;5.10;;;;;;;32.42;62.74;100839.88;5063119;28;66110;-43
2023/06/21 02:45:36;;;;;;;5.68;5.18;;;;;;;32.56;62.60;100861.44;5060740;28;69186;-42
2023/06/21 02:48:08;;;;;;;5.47;4.90;;;;;;;32.59;62.43;100859.06;5043532;28;65173;-44
2023/06/21 02:50:40;;;;;;;5.53;5.05;;;;;;;32.64;62.42;100855.66;5058806;28;70440;-41
2023/06/21 02:53:12;;;;;;;5.82;5.30;;;;;;;32.61;62.54;100853.41;5059357;28;67152;-43
2023/06/21 02:55:43;;;;;;;5.03;4.72;;;;;;;32.51;62.01;100826.00;5060393;28;70636;-41
2023/06/21 02:58:14;;;;;;;5.63;4.93;;;;;;;32.68;61.78;100854.97;5058455;28;65552;-42
2023/06/21 03:00:46;;;;;;;5.57;5.00;;;;;;;32.75;61.88;100854.03;5060103;28;69302;-44
2023/06/21 03:03:17;;;;;;;5.35;4.95;;;;;;;32.77;61.74;100852.75;5045915;28;65938;-39
2023/06/21 03:05:49;;;;;;;8.00;4.68;;;;;;;32.80;61.60;100855.00;5060330;28;69831;-40
2023/06/21 03:08:20;;;;;;;5.45;4.95;;;;;;;32.77;61.68;100852.75;5058579;28;66346;-40
2023/06/21 03:10:52;;;;;;;5.80;4.75;;;;;;;32.67;61.60;100826.16;5060978;28;69958;-45
2023/06/21 03:13:23;;;;;;;5.43;4.93;;;;;;;32.85;61.57;100854.31;5057703;28;66373;-40
2023/06/21 03:15:55;;;;;;;5.07;4.68;;;;;;;32.80;61.33;100846.84;5052373;28;70456;-42
2023/06/21 03:18:26;;;;;;;5.37;4.97;;;;;;;32.90;61.19;100847.09;5059662;28;66114;-43
2023/06/21 03:21:00;;;;;;;5.45;5.03;;;;;;;32.94;61.21;100853.69;5045576;28;70364;-43
2023/06/21 03:23:33;;;;;;;4.93;4.53;;;;;;;33.00;60.91;100845.72;5044272;28;65782;-42
2023/06/21 03:26:04;;;;;;;4.55;4.20;;;;;;;32.98;60.78;100835.03;5041975;28;69459;-41
2023/06/21 03:28:36;;;;;;;4.85;4.45;;;;;;;33.04;60.78;100841.44;5053188;28;66343;-42
2023/06/21 03:31:10;;;;;;;5.00;4.22;;;;;;;32.64;60.35;100766.03;5042926;28;69982;-44
2023/06/21 03:33:41;;;;;;;;;;;;;;;32.80;61.28;100846.84;5057161;28;66110;-42
2023/06/21 03:36:13;;;;;;;4.60;4.15;;;;;;;33.08;60.15;100831.78;5060079;28;70047;-43
2023/06/21 03:38:44;;;;;;;4.80;4.50;;;;;;;33.11;60.47;100832.13;5041992;28;65770;-43
2023/06/21 03:41:16;;;;;;;4.10;3.70;;;;;;;33.13;60.26;100829.19;5035704;28;69389;-40
2023/06/21 03:43:47;;;;;;;4.30;3.95;;;;;;;33.18;60.16;100823.00;5061047;28;65819;-42
2023/06/21 03:46:19;;;;;;;4.70;4.30;;;;;;;33.19;60.05;100825.50;5058487;28;69998;-42
2023/06/21 03:48:53;;;;;;;6.65;4.43;;;;;;;33.20;59.95;100821.72;5046218;28;66595;-44
2023/06/21 03:51:26;;;;;;;4.35;4.05;;;;;;;33.26;59.59;100833.53;5039347;28;70000;-41
2023/06/21 03:53:58;;;;;;;4.60;4.30;;;;;;;33.23;59.65;100813.06;5053745;28;65355;-40
2023/06/21 03:56:29;;;;;;;4.45;4.03;;;;;;;33.28;59.80;100826.78;5063077;28;70232;-44
2023/06/21 03:59:01;;;;;;;4.43;4.05;;;;;;;33.28;59.54;100821.34;5066712;28;65781;-42
2023/06/21 04:01:33;;;;;;;4.47;4.07;;;;;;;33.32;59.33;100838.84;5059868;28;70267;-44
2023/06/21 04:04:04;;;;;;;4.35;4.05;;;;;;;33.32;59.37;100838.84;5025753;28;65838;-44
2023/06/21 04:06:38;;;;;;;5.80;4.15;;;;;;;33.29;59.44;100817.59;5053420;28;69199;-43
2023/06/21 04:09:09;;;;;;;4.00;3.60;;;;;;;33.30;59.23;100813.78;5055553;28;66674;-44
2023/06/21 04:11:41;;;;;;;5.55;4.00;;;;;;;33.35;59.42;100821.25;5061934;28;70071;-42
2023/06/21 04:14:14;;;;;;;4.30;4.00;;;;;;;33.40;59.16;100817.78;5062338;28;66188;-43
2023/06/21 04:16:45;;;;;;;4.15;3.85;;;;;;;33.45;59.27;100831.50;5044707;28;70791;-42
2023/06/21 04:19:16;;;;;;;4.28;3.85;;;;;;;33.43;58.98;100817.31;5042966;28;65896;-44
2023/06/21 04:21:48;;;;;;;5.70;4.30;;;;;;;33.41;59.05;100830.34;5042312;28;70591;-44
2023/06/21 04:24:20;;;;;;;4.50;3.88;;;;;;;33.12;58.95;100767.72;5044591;28;65267;-43
2023/06/21 04:26:53;;;;;;;4.40;4.00;;;;;;;33.51;59.14;100827.81;5046856;28;70693;-43
2023/06/21 04:29:26;;;;;;;5.22;4.10;;;;;;;33.51;58.94;100816.94;5041116;28;66663;-42
2023/06/21 04:31:57;;;;;;;4.43;3.92;;;;;;;33.53;59.11;100823.81;5058065;28;69989;-41
2023/06/21 04:34:29;;;;;;;4.32;3.92;;;;;;;33.10;58.60;100748.94;5060082;28;66637;-42
2023/06/21 04:37:05;;;;;;;4.30;4.00;;;;;;;33.56;58.63;100827.97;5058336;28;70107;-41
2023/06/21 04:39:36;;;;;;;5.90;4.00;;;;;;;33.49;58.88;100819.06;5060296;28;66797;-41
2023/06/21 04:42:08;;;;;;;3.92;3.63;;;;;;;33.59;58.57;100822.03;5058702;28;70445;-41
2023/06/21 04:44:39;;;;;;;4.18;3.85;;;;;;;33.61;58.50;100819.91;5052752;28;66670;-42
2023/06/21 04:47:10;;;;;;;4.35;3.88;;;;;;;33.50;58.55;100796.25;5059446;28;70793;-43
2023/06/21 04:49:44;;;;;;;4.40;4.00;;;;;;;33.66;58.49;100817.28;5056707;28;65668;-43
2023/06/21 04:52:15;;;;;;;;;;;;;;;33.35;58.82;100816.63;5060334;28;68342;-43
2023/06/21 04:54:46;;;;;;;4.20;3.80;;;;;;;33.58;58.52;100804.88;5060627;28;65445;-41
2023/06/21 04:57:17;;;;;;;4.82;4.18;;;;;;;33.63;58.15;100806.06;5059305;28;70138;-42
2023/06/21 04:59:49;;;;;;;5.32;4.22;;;;;;;33.67;58.26;100807.22;5065867;28;66167;-43
2023/06/21 05:02:20;;;;;;;4.90;4.20;;;;;;;33.69;58.12;100805.94;5060158;28;70298;-42
2023/06/21 05:04:51;;;;;;;4.97;4.47;;;;;;;33.49;58.02;100770.09;5060007;28;66198;-43
2023/06/21 05:07:23;;;;;;;3.90;3.47;;;;;;;33.71;57.97;100803.81;5056918;28;70115;-44
2023/06/21 05:09:54;;;;;;;4.57;4.22;;;;;;;33.72;58.00;100804.63;5060420;28;66196;-45
2023/06/21 05:12:26;;;;;;;4.07;3.42;;;;;;;33.66;57.89;100792.00;5059575;28;69573;-40
2023/06/21 05:14:57;;;;;;;5.38;4.50;;;;;;;33.67;57.91;100791.72;5060409;28;66807;-43
2023/06/21 05:17:28;;;;;;;4.85;4.05;;;;;;;33.54;57.52;100765.66;5059523;28;70350;-43
2023/06/21 05:19:59;;;;;;;3.88;3.25;;;;;;;33.62;57.70;100780.75;5041420;28;66674;-42
2023/06/21 05:22:31;;;;;;;4.57;3.50;;;;;;;33.72;57.75;100782.84;5060781;28;68726;-41
2023/06/21 05:25:02;;;;;;;;;;;;;;;33.49;58.28;100791.88;5037512;28;65547;-43
2023/06/21 05:27:34;;;;;;;4.05;3.65;;;;;;;33.75;57.81;100783.19;5058283;28;71149;-43
2023/06/21 05:30:06;;;;;;;4.65;4.15;;;;;;;33.76;57.29;100767.69;5059687;28;66176;-42
2023/06/21 05:32:37;;;;;;;4.97;3.83;;;;;;;33.77;57.82;100756.56;5067748;28;70937;-40
2023/06/21 05:35:09;;;;;;;4.40;3.83;;;;;;;33.76;57.53;100749.47;5061985;28;66007;-42
2023/06/21 05:37:40;;;;;;;4.10;3.70;;;;;;;33.84;57.43;100763.75;5038361;28;69789;-42
2023/06/21 05:40:12;;;;;;;4.32;3.92;;;;;;;33.86;57.30;100761.63;5054970;28;65411;-44
2023/06/21 05:42:42;;;;;;;;;;;;;;;33.58;57.83;100755.13;5062497;28;70295;-43
2023/06/21 05:45:14;;;;;;;4.00;3.70;;;;;;;33.86;57.42;100754.28;5058846;28;66197;-40
2023/06/21 05:47:45;;;;;;;;;;;;;;;33.58;57.81;100749.69;5042955;28;70649;-42
2023/06/21 05:50:16;;;;;;;3.50;3.20;;;;;;;33.89;57.24;100740.19;5059856;28;67013;-49
2023/06/21 05:52:47;;;;;;;6.18;3.45;;;;;;;33.74;56.93;100723.56;5058515;28;69446;-41
2023/06/21 05:55:19;;;;;;;5.13;3.60;;;;;;;33.81;56.94;100724.25;5065631;28;66190;-43
2023/06/21 05:57:50;;;;;;;3.83;3.53;;;;;;;33.95;57.20;100747.38;5058477;28;70124;-42
2023/06/21 06:00:22;;;;;;;3.45;3.15;;;;;;;33.81;57.16;100707.94;5066141;28;65933;-43
2023/06/21 06:02:52;;;;;;;;;;;;;;;33.68;57.37;100736.25;5058990;28;70227;-42
2023/06/21 06:05:23;;;;;;;5.80;3.72;;;;;;;33.97;57.13;100731.63;5059808;28;66938;-44
2023/06/21 06:07:55;;;;;;;4.68;3.78;;;;;;;34.02;57.10;100736.34;5058585;28;69700;-44
2023/06/21 06:10:26;;;;;;;3.80;3.50;;;;;;;34.02;57.26;100733.63;5044389;28;66063;-43
2023/06/21 06:12:58;;;;;;;6.05;3.80;;;;;;;34.06;57.18;100723.09;5058995;28;70376;-41
2023/06/21 06:15:29;;;;;;;4.10;3.22;;;;;;;34.02;56.61;100706.41;5063474;28;66354;-43
2023/06/21 06:18:01;;;;;;;4.10;3.70;;;;;;;34.08;56.81;100713.63;5064309;28;70005;-43
2023/06/21 06:20:32;;;;;;;3.88;3.13;;;;;;;34.05;56.49;100702.41;5058317;28;65912;-41
2023/06/21 06:23:03;;;;;;;5.53;3.92;;;;;;;34.11;56.94;100704.97;5060224;28;70361;-42
2023/06/21 06:25:35;;;;;;;4.35;3.95;;;;;;;34.13;56.90;100702.81;5059316;28;66352;-42
2023/06/21 06:28:07;;;;;;;;;;;;;;;33.86;56.89;100691.72;5054953;28;69820;-42
2023/06/21 06:30:38;;;;;;;5.53;3.63;;;;;;;34.09;56.91;100679.88;5058784;28;65766;-41
2023/06/21 06:33:09;;;;;;;5.25;4.03;;;;;;;34.18;56.33;100677.56;5061977;28;70071;-45
2023/06/21 06:35:40;;;;;;;4.25;3.95;;;;;;;34.19;56.52;100682.78;5060625;28;66054;-43
2023/06/21 06:38:11;;;;;;;6.13;4.50;;;;;;;34.22;56.13;100679.56;5060472;28;68875;-42
2023/06/21 06:40:43;;;;;;;4.35;3.88;;;;;;;34.24;56.18;100680.13;5059480;28;65303;-41
2023/06/21 06:43:14;;;;;;;4.57;3.97;;;;;;;34.26;56.02;100680.69;5047119;28;70738;-43
2023/06/21 06:45:45;;;;;;;4.05;3.65;;;;;;;33.84;55.76;100597.78;5061617;28;66019;-42
2023/06/21 06:48:17;;;;;;;4.82;3.88;;;;;;;34.14;56.32;100632.88;5067577;28;71007;-41
2023/06/21 06:50:48;;;;;;;3.92;3.53;;;;;;;34.29;55.75;100646.69;5064471;28;66017;-42
2023/06/21 06:53:19;;;;;;;4.47;4.10;;;;;;;34.35;56.04;100655.75;5060246;28;69067;-43
2023/06/21 06:55:51;;;;;;;4.33;4.03;;;;;;;33.89;55.87;100578.84;5061090;28;67336;-44
2023/06/21 06:58:22;;;;;;;4.13;3.78;;;;;;;34.39;55.76;100646.84;5063027;28;69497;-43
2023/06/21 07:00:54;;;;;;;3.53;3.25;;;;;;;34.40;56.01;100643.06;5043080;28;65724;-44
2023/06/21 07:03:25;;;;;;;6.30;4.00;;;;;;;34.06;55.69;100576.13;5042807;28;69859;-43
2023/06/21 07:05:57;;;;;;;3.97;3.67;;;;;;;34.41;56.00;100633.81;5062634;28;66189;-41
2023/06/21 07:08:28;;;;;;;;;;;;;;;34.16;56.17;100637.00;5062232;28;70416;-43
2023/06/21 07:10:59;;;;;;;4.68;3.90;;;;;;;34.46;55.88;100624.88;5060025;28;66821;-44
2023/06/21 07:13:30;;;;;;;5.68;3.97;;;;;;;34.47;55.77;100615.66;5060340;28;69378;-40
2023/06/21 07:16:01;;;;;;;4.40;4.00;;;;;;;34.52;55.37;100615.72;5065372;28;66340;-44
2023/06/21 07:18:33;;;;;;;6.10;3.45;;;;;;;34.55;55.67;100612.50;5042474;28;70247;-44
2023/06/21 07:21:04;;;;;;;5.45;3.70;;;;;;;34.58;55.75;100606.56;5062110;28;66460;-42
2023/06/21 07:23:35;;;;;;;5.30;3.92;;;;;;;34.59;55.22;100596.50;5059284;28;69357;-42
2023/06/21 07:26:08;;;;;;;4.20;3.75;;;;;;;34.61;55.23;100597.91;5067414;28;66051;-42
2023/06/21 07:28:39;;;;;;;4.20;3.80;;;;;;;34.64;55.52;100589.22;5072143;28;70950;-43
2023/06/21 07:31:10;;;;;;;4.47;4.07;;;;;;;34.50;55.52;100566.13;5058474;28;65590;-44
2023/06/21 07:33:42;;;;;;;5.03;3.63;;;;;;;34.68;54.92;100595.78;5044790;28;70387;-42
2023/06/21 07:36:13;;;;;;;3.78;3.45;;;;;;;34.59;55.09;100567.34;5060169;28;66191;-42
2023/06/21 07:38:46;;;;;;;;;;;;;;;34.41;54.93;100570.38;5066099;28;69919;-43
2023/06/21 07:41:19;;;;;;;4.38;3.80;;;;;;;34.66;54.75;100559.00;5044391;28;66349;-41
2023/06/21 07:43:50;;;;;;;3.95;3.65;;;;;;;34.71;54.75;100556.31;5060986;28;70535;-43
2023/06/21 07:46:22;;;;;;;3.47;3.17;;;;;;;34.70;54.75;100552.78;5064540;28;67146;-42
2023/06/21 07:48:53;;;;;;;3.47;3.17;;;;;;;34.72;54.55;100551.72;5049947;28;69057;-41
2023/06/21 07:51:25;;;;;;;3.60;3.30;;;;;;;34.75;54.39;100556.66;5062710;28;66516;-42
2023/06/21 07:53:56;;;;;;;4.47;3.83;;;;;;;34.66;54.69;100532.59;5038750;28;70084;-41
2023/06/21 07:56:27;;;;;;;3.85;3.40;;;;;;;34.78;54.65;100551.50;5063046;28;65877;-41
2023/06/21 07:58:59;;;;;;;5.72;3.88;;;;;;;34.78;54.45;100535.16;5057766;28;69790;-42
2023/06/21 08:01:30;;;;;;;3.47;3.17;;;;;;;34.74;54.23;100534.00;5044885;28;65503;-42
2023/06/21 08:04:05;;;;;;;4.13;3.83;;;;;;;34.80;54.00;100537.63;5062872;28;69744;-43
2023/06/21 08:06:36;;;;;;;4.47;3.40;;;;;;;34.81;54.12;100533.84;5033581;28;66632;-45
2023/06/21 08:09:07;;;;;;;3.80;3.50;;;;;;;34.82;54.63;100540.91;5056972;28;69976;-44
2023/06/21 08:11:39;;;;;;;4.88;3.40;;;;;;;34.67;54.14;100511.63;5059881;28;66665;-41
2023/06/21 08:14:10;;;;;;;5.93;3.10;;;;;;;34.83;54.54;100531.69;5059850;28;70436;-44
2023/06/21 08:16:41;;;;;;;8.00;3.55;;;;;;;34.70;54.14;100514.63;5059764;28;66612;-42
2023/06/21 08:19:12;;;;;;;4.15;3.65;;;;;;;34.80;54.53;100521.28;5057602;28;69605;-41
2023/06/21 08:21:44;;;;;;;5.72;3.40;;;;;;;34.83;54.48;100521.59;5060793;28;66927;-43
2023/06/21 08:24:15;;;;;;;;;;;;;;;34.58;54.12;100516.69;5057486;28;70322;-40
2023/06/21 08:26:46;;;;;;;7.55;3.75;;;;;;;34.82;54.41;100513.69;5051388;28;66834;-42
2023/06/21 08:29:17;;;;;;;5.68;4.22;;;;;;;34.87;53.91;100532.81;5060512;28;69993;-42
2023/06/21 08:31:48;;;;;;;4.33;3.40;;;;;;;34.88;53.87;100535.28;5061058;28;65960;-42
2023/06/21 08:34:19;;;;;;;4.82;3.17;;;;;;;34.83;54.41;100507.16;5059307;28;70330;-43
2023/06/21 08:36:51;;;;;;;4.72;3.25;;;;;;;34.86;53.81;100531.16;5060285;28;66306;-42
2023/06/21 08:39:22;;;;;;;4.55;3.25;;;;;;;34.91;53.79;100537.50;5058129;28;69943;-42
2023/06/21 08:41:53;;;;;;;4.10;3.50;;;;;;;34.91;53.62;100542.13;5059413;28;66525;-40
2023/06/21 08:44:24;;;;;;;4.20;3.80;;;;;;;34.69;53.79;100502.09;5061308;28;69401;-42
2023/06/21 08:46:57;;;;;;;4.63;3.22;;;;;;;34.91;53.84;100533.97;5060375;28;66436;-42
2023/06/21 08:49:30;;;;;;;4.93;3.22;;;;;;;34.46;53.87;100458.75;5061034;28;70808;-40
2023/06/21 08:52:05;;;;;;;3.35;3.05;;;;;;;34.90;53.56;100521.38;5060392;28;65328;-42
2023/06/21 08:54:40;;;;;;;3.47;3.10;;;;;;;34.81;53.99;100501.97;5059647;28;70030;-42
2023/06/21 08:57:28;;;;;;;3.63;3.05;;;;;;;34.65;53.29;100487.34;5051990;28;66626;-44
2023/06/21 09:00:04;;;;;;;3.67;3.13;;;;;;;34.85;53.46;100496.81;5060403;28;69068;-40
2023/06/21 09:02:35;;;;;;;5.18;3.28;;;;;;;34.98;53.96;100512.75;5043847;28;65903;-45
2023/06/21 09:05:23;;;;;;;4.68;3.70;;;;;;;34.41;53.61;100415.16;5050520;28;69452;-43
2023/06/21 09:07:55;;;;;;;4.05;3.65;;;;;;;34.97;53.51;100502.13;5057389;28;65871;-44
2023/06/21 09:10:29;;;;;;;4.72;3.33;;;;;;;34.72;53.31;100454.47;5059962;28;69626;-44
2023/06/21 09:13:02;;;;;;;5.18;3.25;;;;;;;34.98;53.86;100495.59;5058785;28;65427;-44
2023/06/21 09:15:34;;;;;;;3.75;3.28;;;;;;;34.68;53.97;100447.88;5058620;28;70228;-44
2023/06/21 09:18:05;;;;;;;4.75;3.13;;;;;;;34.77;53.82;100456.41;5057051;28;65725;-44
2023/06/21 09:20:38;;;;;;;6.95;3.28;;;;;;;34.98;53.22;100495.59;5054425;28;70598;-44
2023/06/21 09:23:10;;;;;;;5.07;3.00;;;;;;;34.96;53.45;100487.66;5055005;28;65803;-41
2023/06/21 09:25:44;;;;;;;6.78;3.40;;;;;;;34.98;53.76;100496.41;5056277;28;70292;-42
2023/06/21 09:28:15;;;;;;;4.00;3.60;;;;;;;34.90;53.78;100484.06;5056839;28;66347;-43
2023/06/21 09:30:47;;;;;;;7.10;3.25;;;;;;;34.97;53.39;100489.31;5058124;28;69589;-43
2023/06/21 09:33:18;;;;;;;3.63;3.33;;;;;;;34.95;53.98;100496.91;5059039;28;66853;-43
2023/06/21 09:35:50;;;;;;;4.13;3.72;;;;;;;34.97;53.71;100496.69;5058474;28;69370;-43
2023/06/21 09:38:28;;;;;;;5.78;3.42;;;;;;;34.97;53.83;100497.50;5054987;28;65645;-41
2023/06/21 09:41:01;;;;;;;3.22;2.92;;;;;;;34.98;53.35;100496.41;5059448;28;69254;-43
2023/06/21 09:43:32;;;;;;;3.40;3.10;;;;;;;34.89;53.75;100481.59;5059020;28;66910;-43
2023/06/21 09:46:05;;;;;;;10.93;3.65;;;;;;;34.65;53.64;100442.94;5056829;28;70314;-41
2023/06/21 09:48:39;;;;;;;4.05;3.35;;;;;;;34.25;53.34;100368.69;5062482;28;66440;-40
2023/06/21 09:51:18;;;;;;;4.82;3.80;;;;;;;34.92;53.41;100481.91;5040171;28;70224;-42
2023/06/21 09:53:51;;;;;;;3.10;2.60;;;;;;;34.99;53.26;100498.03;5056892;28;66383;-41
2023/06/21 09:56:22;;;;;;;3.83;3.42;;;;;;;34.84;53.38;100479.63;5058377;28;69320;-41
2023/06/21 09:58:54;;;;;;;6.60;4.05;;;;;;;34.85;53.47;100475.00;5057603;28;67116;-43
2023/06/21 10:01:35;;;;;;;4.30;3.47;;;;;;;34.97;53.94;100493.94;5055949;28;69986;-40
2023/06/21 10:04:12;;;;;;;7.65;3.20;;;;;;;34.96;53.76;100509.47;5055507;28;66629;-41
2023/06/21 10:06:56;;;;;;;3.58;3.03;;;;;;;34.95;53.54;100507.81;5063452;28;70339;-41
2023/06/21 10:09:38;;;;;;;3.60;3.30;;;;;;;34.92;53.66;100502.88;5062490;28;66206;-42
2023/06/21 10:12:11;;;;;;;8.50;3.90;;;;;;;35.00;53.94;100507.88;5063198;28;69643;-42
2023/06/21 10:14:43;;;;;;;6.70;3.80;;;;;;;35.00;53.83;100510.59;5055625;28;66371;-41
2023/06/21 10:17:16;;;;;;;5.07;3.17;;;;;;;34.93;53.50;100504.53;5062422;28;69460;-41
2023/06/21 10:19:48;;;;;;;3.38;2.95;;;;;;;34.82;53.56;100502.78;5062868;28;65521;-44
2023/06/21 10:22:21;;;;;;;4.05;3.35;;;;;;;34.52;53.40;100457.75;5060462;28;69849;-41
2023/06/21 10:24:54;;;;;;;3.65;3.20;;;;;;;34.98;54.38;100534.56;5061817;28;66590;-43
2023/06/21 10:27:26;;;;;;;3.47;3.15;;;;;;;34.51;54.63;100469.72;5041878;28;70289;-42
2023/06/21 10:30:00;;;;;;;4.38;3.22;;;;;;;34.86;54.85;100536.63;5060783;28;66350;-41
2023/06/21 10:32:36;;;;;;;6.03;3.42;;;;;;;34.93;55.23;100559.03;5059459;28;70694;-42
2023/06/21 10:35:15;;;;;;;6.18;3.28;;;;;;;34.86;55.67;100548.34;5060145;28;67013;-42
2023/06/21 10:38:04;;;;;;;5.05;3.95;;;;;;;34.82;55.49;100551.81;5060651;28;70918;-43
2023/06/21 10:40:37;;;;;;;4.72;3.47;;;;;;;34.77;55.60;100533.53;5059479;28;66503;-40
2023/06/21 10:43:10;;;;;;;5.50;4.05;;;;;;;34.85;55.38;100549.44;5061553;28;70102;-42
2023/06/21 10:45:42;;;;;;;7.20;4.15;;;;;;;34.88;55.75;100561.69;5060600;28;66098;-43
2023/06/21 10:48:14;;;;;;;4.25;3.40;;;;;;;34.83;55.87;100561.66;5056301;28;70011;-42
2023/06/21 10:50:47;;;;;;;3.80;3.50;;;;;;;34.88;55.73;100565.25;5061857;28;66384;-42
2023/06/21 10:53:19;;;;;;;4.45;3.45;;;;;;;34.79;55.80;100552.34;5059526;28;70335;-44
2023/06/21 10:55:52;;;;;;;5.00;3.67;;;;;;;34.88;55.36;100572.59;5043210;28;66123;-42
2023/06/21 10:58:23;;;;;;;;;;;;;;;34.55;56.39;100568.91;5058393;28;69951;-41
2023/06/21 11:00:55;;;;;;;3.78;3.40;;;;;;;34.85;55.60;100570.38;5062312;28;66284;-43
2023/06/21 11:03:27;;;;;;;4.55;4.00;;;;;;;34.87;56.37;100573.69;5061119;28;70171;-42
2023/06/21 11:06:25;;;;;;;5.70;3.28;;;;;;;34.77;56.32;100579.00;5062279;28;66177;-43
2023/06/21 11:09:11;;;;;;;7.22;3.83;;;;;;;34.77;57.15;100581.72;5061728;28;68747;-42
2023/06/21 11:11:51;;;;;;;5.20;3.97;;;;;;;34.84;56.44;100604.16;5060754;28;67015;-43
2023/06/21 11:14:30;;;;;;;4.15;3.75;;;;;;;34.30;56.73;100505.94;5060994;28;70708;-42
2023/06/21 11:17:12;;;;;;;8.05;4.80;;;;;;;34.24;57.04;100497.72;5060192;28;66099;-43
2023/06/21 11:19:44;;;;;;;4.30;3.70;;;;;;;34.84;56.96;100587.81;5058720;28;70801;-43
2023/06/21 11:22:17;;;;;;;11.95;5.63;;;;;;;34.28;59.46;100524.44;5056756;28;66463;-44
2023/06/21 11:25:00;;;;;;;6.75;5.28;;;;;;;34.80;59.65;100592.13;5057938;28;69299;-42
2023/06/21 11:27:31;;;;;;;5.65;5.05;;;;;;;34.82;58.79;100592.69;5056367;28;65717;-45
2023/06/21 11:30:10;;;;;;;10.18;5.20;;;;;;;34.71;58.54;100572.66;5060723;28;70145;-43
2023/06/21 11:32:55;;;;;;;6.47;4.80;;;;;;;34.22;58.79;100488.97;5058025;28;66546;-43
2023/06/21 11:35:51;;;;;;;7.18;5.18;;;;;;;34.75;58.88;100578.47;5056371;28;70499;-40
2023/06/21 11:38:24;;;;;;;6.40;5.10;;;;;;;34.84;58.50;100590.53;5061576;28;66836;-40
2023/06/21 11:40:55;;;;;;;6.50;5.43;;;;;;;34.84;57.98;100598.72;5059280;28;70399;-42
2023/06/21 11:43:28;;;;;;;7.45;5.38;;;;;;;34.82;58.70;100600.88;5059676;28;66149;-42
2023/06/21 11:46:02;;;;;;;8.60;5.50;;;;;;;34.81;58.37;100599.22;5061182;28;70141;-45
2023/06/21 11:48:40;;;;;;;13.23;5.68;;;;;;;34.80;59.29;100603.00;5060523;28;65833;-41
2023/06/21 11:51:11;;;;;;;6.43;5.60;;;;;;;34.73;58.63;100597.78;5063947;28;70075;-42
2023/06/21 11:53:43;;;;;;;9.63;5.22;;;;;;;34.78;58.29;100616.09;5069596;28;66042;-42